sensor_id;sensor_type;location;lat;lon;timestamp;pressure;altitude;pressure_sealevel;temperature;humidity
42671;BME280;28283;55.426;37.756;2022-12-11T00:03:31;98494.63;;;0.09;96.65
42671;BME280;28283;55.426;37.756;2022-12-11T00:08:32;98517.34;;;0.20;96.70
42671;BME280;28283;55.426;37.756;2022-12-11T00:13:33;98508.09;;;0.24;96.87
42671;BME280;28283;55.426;37.756;2022-12-11T00:18:34;98517.38;;;0.28;96.56
42671;BME280;28283;55.426;37.756;2022-12-11T00:23:35;98511.41;;;0.26;96.41
42671;BME280;28283;55.426;37.756;2022-12-11T00:28:36;98501.47;;;0.20;96.45
42671;BME280;28283;55.426;37.756;2022-12-11T00:33:36;98517.38;;;0.28;96.63
42671;BME280;28283;55.426;37.756;2022-12-11T00:38:37;98508.41;;;0.21;96.94
42671;BME280;28283;55.426;37.756;2022-12-11T00:43:38;98510.59;;;0.26;96.93
42671;BME280;28283;55.426;37.756;2022-12-11T00:48:38;98503.97;;;0.22;96.84
42671;BME280;28283;55.426;37.756;2022-12-11T00:53:39;98521.38;;;0.32;96.51
42671;BME280;28283;55.426;37.756;2022-12-11T00:58:39;98519.56;;;0.33;97.00
42671;BME280;28283;55.426;37.756;2022-12-11T01:03:40;98534.25;;;0.35;96.83
42671;BME280;28283;55.426;37.756;2022-12-11T01:08:41;98527.84;;;0.38;96.96
42671;BME280;28283;55.426;37.756;2022-12-11T01:13:42;98520.06;;;0.36;97.05
42671;BME280;28283;55.426;37.756;2022-12-11T01:18:43;98507.47;;;0.30;96.93
42671;BME280;28283;55.426;37.756;2022-12-11T01:23:44;98534.19;;;0.45;96.93
42671;BME280;28283;55.426;37.756;2022-12-11T01:28:48;98506.72;;;0.38;96.87
42671;BME280;28283;55.426;37.756;2022-12-11T01:33:49;98503.41;;;0.36;96.89
42671;BME280;28283;55.426;37.756;2022-12-11T01:38:53;98514.81;;;0.45;96.97
42671;BME280;28283;55.426;37.756;2022-12-11T01:43:59;98523.59;;;0.45;96.98
42671;BME280;28283;55.426;37.756;2022-12-11T01:49:02;98513.19;;;0.44;96.73
42671;BME280;28283;55.426;37.756;2022-12-11T01:54:07;98521.53;;;0.31;96.76
42671;BME280;28283;55.426;37.756;2022-12-11T01:59:09;98525.22;;;0.38;96.91
42671;BME280;28283;55.426;37.756;2022-12-11T02:04:11;98540.41;;;0.36;97.24
42671;BME280;28283;55.426;37.756;2022-12-11T02:09:18;98531.44;;;0.29;97.53
42671;BME280;28283;55.426;37.756;2022-12-11T02:20:10;98553.44;;;0.37;97.29
42671;BME280;28283;55.426;37.756;2022-12-11T02:25:30;98553.97;;;0.41;97.42
42671;BME280;28283;55.426;37.756;2022-12-11T02:30:36;98567.50;;;0.38;97.43
42671;BME280;28283;55.426;37.756;2022-12-11T02:35:41;98558.38;;;0.32;97.53
42671;BME280;28283;55.426;37.756;2022-12-11T02:40:43;98559.13;;;0.25;97.51
42671;BME280;28283;55.426;37.756;2022-12-11T02:45:47;98576.72;;;0.34;97.53
42671;BME280;28283;55.426;37.756;2022-12-11T02:50:51;98585.50;;;0.34;97.67
42671;BME280;28283;55.426;37.756;2022-12-11T02:56:08;98569.72;;;0.25;97.53
42671;BME280;28283;55.426;37.756;2022-12-11T03:01:10;98597.34;;;0.30;98.09
42671;BME280;28283;55.426;37.756;2022-12-11T03:06:15;98600.44;;;0.44;98.04
42671;BME280;28283;55.426;37.756;2022-12-11T03:11:18;98581.47;;;0.30;97.62
42671;BME280;28283;55.426;37.756;2022-12-11T03:21:36;98616.44;;;0.42;97.52
42671;BME280;28283;55.426;37.756;2022-12-11T03:26:49;98621.72;;;0.42;97.81
42671;BME280;28283;55.426;37.756;2022-12-11T03:32:18;98632.16;;;0.44;97.29
42671;BME280;28283;55.426;37.756;2022-12-11T03:37:25;98625.31;;;0.33;97.90
42671;BME280;28283;55.426;37.756;2022-12-11T03:42:28;98629.41;;;0.27;97.99
42671;BME280;28283;55.426;37.756;2022-12-11T03:47:29;98622.50;;;0.34;98.19
42671;BME280;28283;55.426;37.756;2022-12-11T03:52:31;98632.03;;;0.27;98.12
42671;BME280;28283;55.426;37.756;2022-12-11T03:57:36;98624.41;;;0.24;97.82
42671;BME280;28283;55.426;37.756;2022-12-11T04:02:37;98631.28;;;0.17;97.90
42671;BME280;28283;55.426;37.756;2022-12-11T04:07:38;98630.91;;;0.12;97.93
42671;BME280;28283;55.426;37.756;2022-12-11T04:12:38;98616.03;;;-0.07;97.86
42671;BME280;28283;55.426;37.756;2022-12-11T04:17:39;98649.69;;;0.09;97.91
42671;BME280;28283;55.426;37.756;2022-12-11T04:22:58;98644.34;;;0.01;98.35
42671;BME280;28283;55.426;37.756;2022-12-11T04:28:18;98659.00;;;0.13;98.14
42671;BME280;28283;55.426;37.756;2022-12-11T04:33:18;98674.19;;;0.11;98.24
42671;BME280;28283;55.426;37.756;2022-12-11T04:38:19;98671.69;;;0.09;98.56
42671;BME280;28283;55.426;37.756;2022-12-11T04:43:19;98674.63;;;0.06;98.69
42671;BME280;28283;55.426;37.756;2022-12-11T04:48:20;98672.41;;;0.02;98.56
42671;BME280;28283;55.426;37.756;2022-12-11T04:53:21;98667.75;;;-0.05;98.73
42671;BME280;28283;55.426;37.756;2022-12-11T04:58:22;98671.16;;;0.06;98.79
42671;BME280;28283;55.426;37.756;2022-12-11T05:03:23;98672.59;;;0.00;98.43
42671;BME280;28283;55.426;37.756;2022-12-11T05:08:23;98676.97;;;0.09;98.66
42671;BME280;28283;55.426;37.756;2022-12-11T05:13:26;98661.56;;;0.05;98.79
42671;BME280;28283;55.426;37.756;2022-12-11T05:18:27;98693.50;;;0.11;98.82
42671;BME280;28283;55.426;37.756;2022-12-11T05:23:28;98685.44;;;0.13;98.84
42671;BME280;28283;55.426;37.756;2022-12-11T05:28:29;98694.31;;;0.12;98.81
42671;BME280;28283;55.426;37.756;2022-12-11T05:33:31;98670.38;;;-0.05;98.57
42671;BME280;28283;55.426;37.756;2022-12-11T05:38:31;98711.00;;;0.12;98.71
42671;BME280;28283;55.426;37.756;2022-12-11T05:43:34;98720.50;;;0.05;97.96
42671;BME280;28283;55.426;37.756;2022-12-11T05:48:35;98727.50;;;-0.04;98.08
42671;BME280;28283;55.426;37.756;2022-12-11T05:53:37;98751.84;;;0.00;98.26
42671;BME280;28283;55.426;37.756;2022-12-11T05:58:38;98746.00;;;-0.04;98.11
42671;BME280;28283;55.426;37.756;2022-12-11T06:03:39;98741.75;;;-0.14;98.53
42671;BME280;28283;55.426;37.756;2022-12-11T06:08:39;98757.78;;;-0.16;98.67
42671;BME280;28283;55.426;37.756;2022-12-11T06:13:40;98763.63;;;-0.22;98.36
42671;BME280;28283;55.426;37.756;2022-12-11T06:18:43;98805.66;;;-0.01;98.19
42671;BME280;28283;55.426;37.756;2022-12-11T06:23:48;98798.16;;;-0.06;98.48
42671;BME280;28283;55.426;37.756;2022-12-11T06:28:49;98808.75;;;-0.06;98.12
42671;BME280;28283;55.426;37.756;2022-12-11T06:33:50;98821.28;;;-0.08;98.68
42671;BME280;28283;55.426;37.756;2022-12-11T06:38:51;98806.84;;;-0.13;99.03
42671;BME280;28283;55.426;37.756;2022-12-11T06:43:52;98811.75;;;0.09;98.94
42671;BME280;28283;55.426;37.756;2022-12-11T06:48:52;98801.50;;;-0.04;97.93
42671;BME280;28283;55.426;37.756;2022-12-11T06:53:55;98809.66;;;0.03;98.65
42671;BME280;28283;55.426;37.756;2022-12-11T06:58:56;98822.75;;;0.05;98.87
42671;BME280;28283;55.426;37.756;2022-12-11T07:03:58;98794.03;;;-0.08;98.78
42671;BME280;28283;55.426;37.756;2022-12-11T07:09:03;98834.53;;;0.10;98.79
42671;BME280;28283;55.426;37.756;2022-12-11T07:14:04;98823.75;;;0.04;98.54
42671;BME280;28283;55.426;37.756;2022-12-11T07:19:05;98835.53;;;0.09;98.44
42671;BME280;28283;55.426;37.756;2022-12-11T07:24:06;98860.00;;;0.11;98.23
42671;BME280;28283;55.426;37.756;2022-12-11T07:29:07;98849.50;;;0.19;98.29
42671;BME280;28283;55.426;37.756;2022-12-11T07:34:10;98850.94;;;0.14;98.17
42671;BME280;28283;55.426;37.756;2022-12-11T07:39:11;98837.91;;;0.03;98.43
42671;BME280;28283;55.426;37.756;2022-12-11T07:44:12;98858.19;;;0.12;98.07
42671;BME280;28283;55.426;37.756;2022-12-11T07:49:12;98857.59;;;0.18;98.31
42671;BME280;28283;55.426;37.756;2022-12-11T07:54:14;98833.28;;;0.14;98.27
42671;BME280;28283;55.426;37.756;2022-12-11T07:59:16;98840.41;;;0.04;97.82
42671;BME280;28283;55.426;37.756;2022-12-11T08:04:16;98835.16;;;-0.06;97.97
42671;BME280;28283;55.426;37.756;2022-12-11T08:09:18;98819.94;;;-0.22;97.52
42671;BME280;28283;55.426;37.756;2022-12-11T08:14:21;98884.72;;;0.20;97.74
42671;BME280;28283;55.426;37.756;2022-12-11T08:19:22;98870.66;;;0.19;98.07
42671;BME280;28283;55.426;37.756;2022-12-11T08:24:23;98865.81;;;0.15;98.10
42671;BME280;28283;55.426;37.756;2022-12-11T08:29:23;98881.63;;;0.25;97.65
42671;BME280;28283;55.426;37.756;2022-12-11T08:34:24;98888.59;;;0.26;97.78
42671;BME280;28283;55.426;37.756;2022-12-11T08:39:27;98873.34;;;0.10;97.63
42671;BME280;28283;55.426;37.756;2022-12-11T08:44:28;98890.44;;;0.15;97.60
42671;BME280;28283;55.426;37.756;2022-12-11T08:49:29;98886.84;;;0.07;96.89
42671;BME280;28283;55.426;37.756;2022-12-11T08:54:30;98907.16;;;0.06;96.52
42671;BME280;28283;55.426;37.756;2022-12-11T08:59:30;98922.28;;;0.14;97.04
42671;BME280;28283;55.426;37.756;2022-12-11T09:04:31;98921.31;;;0.15;97.31
42671;BME280;28283;55.426;37.756;2022-12-11T09:09:34;98924.38;;;0.20;97.50
42671;BME280;28283;55.426;37.756;2022-12-11T09:14:35;98941.59;;;0.24;96.55
42671;BME280;28283;55.426;37.756;2022-12-11T09:19:35;98924.94;;;0.14;96.70
42671;BME280;28283;55.426;37.756;2022-12-11T09:24:37;98948.16;;;0.20;96.77
42671;BME280;28283;55.426;37.756;2022-12-11T09:29:38;98938.81;;;0.16;96.85
42671;BME280;28283;55.426;37.756;2022-12-11T09:34:38;98923.03;;;0.06;96.39
42671;BME280;28283;55.426;37.756;2022-12-11T09:39:39;98945.19;;;0.23;96.25
42671;BME280;28283;55.426;37.756;2022-12-11T09:44:44;98950.59;;;0.31;96.08
42671;BME280;28283;55.426;37.756;2022-12-11T09:49:49;98935.81;;;0.11;95.83
42671;BME280;28283;55.426;37.756;2022-12-11T09:54:57;98943.75;;;0.11;95.76
42671;BME280;28283;55.426;37.756;2022-12-11T10:10:50;98938.16;;;0.14;95.69
42671;BME280;28283;55.426;37.756;2022-12-11T10:21:05;98960.53;;;0.19;96.21
42671;BME280;28283;55.426;37.756;2022-12-11T10:26:11;98968.78;;;0.07;95.53
42671;BME280;28283;55.426;37.756;2022-12-11T10:31:49;98970.44;;;0.08;95.39
42671;BME280;28283;55.426;37.756;2022-12-11T10:36:52;98968.09;;;0.05;95.54
42671;BME280;28283;55.426;37.756;2022-12-11T10:41:54;98919.88;;;-0.17;95.65
42671;BME280;28283;55.426;37.756;2022-12-11T10:47:13;98948.91;;;0.03;95.30
42671;BME280;28283;55.426;37.756;2022-12-11T10:52:32;98948.34;;;-0.01;94.82
42671;BME280;28283;55.426;37.756;2022-12-11T10:57:36;98904.91;;;-0.36;94.82
42671;BME280;28283;55.426;37.756;2022-12-11T11:02:39;98933.22;;;-0.18;95.31
42671;BME280;28283;55.426;37.756;2022-12-11T11:07:41;98929.50;;;-0.16;95.46
42671;BME280;28283;55.426;37.756;2022-12-11T11:12:48;98917.78;;;-0.13;95.76
42671;BME280;28283;55.426;37.756;2022-12-11T11:18:16;98926.81;;;-0.06;95.69
42671;BME280;28283;55.426;37.756;2022-12-11T11:23:21;98923.06;;;-0.13;95.53
42671;BME280;28283;55.426;37.756;2022-12-11T11:28:29;98921.00;;;-0.20;95.29
42671;BME280;28283;55.426;37.756;2022-12-11T11:33:32;98928.22;;;-0.22;95.45
42671;BME280;28283;55.426;37.756;2022-12-11T11:38:41;98917.28;;;-0.27;95.44
42671;BME280;28283;55.426;37.756;2022-12-11T11:43:55;98919.91;;;-0.27;95.49
42671;BME280;28283;55.426;37.756;2022-12-11T11:49:17;98914.38;;;-0.33;95.45
42671;BME280;28283;55.426;37.756;2022-12-11T11:54:34;98933.25;;;-0.28;95.56
42671;BME280;28283;55.426;37.756;2022-12-11T11:59:58;98900.59;;;-0.47;95.61
42671;BME280;28283;55.426;37.756;2022-12-11T12:05:12;98914.53;;;-0.45;95.88
42671;BME280;28283;55.426;37.756;2022-12-11T12:15:57;98956.72;;;-0.25;95.93
42671;BME280;28283;55.426;37.756;2022-12-11T12:26:19;98945.34;;;-0.26;96.11
42671;BME280;28283;55.426;37.756;2022-12-11T12:31:54;98946.56;;;-0.20;95.58
42671;BME280;28283;55.426;37.756;2022-12-11T12:37:49;98919.66;;;-0.33;95.88
42671;BME280;28283;55.426;37.756;2022-12-11T12:47:53;98921.72;;;-0.27;96.11
42671;BME280;28283;55.426;37.756;2022-12-11T12:52:54;98943.25;;;-0.22;96.09
42671;BME280;28283;55.426;37.756;2022-12-11T12:57:58;98930.63;;;-0.28;96.36
42671;BME280;28283;55.426;37.756;2022-12-11T13:03:02;98947.56;;;-0.21;96.38
42671;BME280;28283;55.426;37.756;2022-12-11T13:08:23;98901.44;;;-0.36;96.12
42671;BME280;28283;55.426;37.756;2022-12-11T13:13:36;98932.25;;;-0.17;96.36
42671;BME280;28283;55.426;37.756;2022-12-11T13:18:38;98925.03;;;-0.15;96.47
42671;BME280;28283;55.426;37.756;2022-12-11T13:23:39;98903.22;;;-0.17;96.57
42671;BME280;28283;55.426;37.756;2022-12-11T13:33:42;98875.03;;;-0.27;96.42
42671;BME280;28283;55.426;37.756;2022-12-11T13:38:48;98874.84;;;-0.25;96.16
42671;BME280;28283;55.426;37.756;2022-12-11T13:43:51;98869.19;;;-0.30;96.87
42671;BME280;28283;55.426;37.756;2022-12-11T13:49:05;98861.81;;;-0.27;96.80
42671;BME280;28283;55.426;37.756;2022-12-11T13:54:14;98856.66;;;-0.28;96.67
42671;BME280;28283;55.426;37.756;2022-12-11T13:59:33;98841.09;;;-0.31;96.86
42671;BME280;28283;55.426;37.756;2022-12-11T14:04:34;98839.88;;;-0.37;96.98
42671;BME280;28283;55.426;37.756;2022-12-11T14:09:42;98862.19;;;-0.22;97.10
42671;BME280;28283;55.426;37.756;2022-12-11T14:14:51;98844.56;;;-0.21;96.96
42671;BME280;28283;55.426;37.756;2022-12-11T14:19:53;98822.34;;;-0.38;96.88
42671;BME280;28283;55.426;37.756;2022-12-11T14:25:00;98837.72;;;-0.24;97.18
42671;BME280;28283;55.426;37.756;2022-12-11T14:30:10;98881.94;;;-0.16;97.09
42671;BME280;28283;55.426;37.756;2022-12-11T14:35:26;98863.03;;;-0.21;97.23
42671;BME280;28283;55.426;37.756;2022-12-11T14:40:38;98872.06;;;-0.14;97.52
42671;BME280;28283;55.426;37.756;2022-12-11T14:45:43;98854.78;;;-0.08;97.81
42671;BME280;28283;55.426;37.756;2022-12-11T14:50:54;98832.84;;;-0.09;97.51
42671;BME280;28283;55.426;37.756;2022-12-11T14:56:01;98827.00;;;-0.12;97.65
42671;BME280;28283;55.426;37.756;2022-12-11T15:01:20;98799.03;;;-0.05;97.34
42671;BME280;28283;55.426;37.756;2022-12-11T15:11:30;98754.81;;;-0.13;97.77
42671;BME280;28283;55.426;37.756;2022-12-11T15:16:36;98733.63;;;-0.21;97.83
42671;BME280;28283;55.426;37.756;2022-12-11T15:21:38;98768.72;;;-0.11;97.88
42671;BME280;28283;55.426;37.756;2022-12-11T15:26:46;98758.22;;;-0.21;97.89
42671;BME280;28283;55.426;37.756;2022-12-11T15:31:59;98746.75;;;-0.11;98.43
42671;BME280;28283;55.426;37.756;2022-12-11T15:37:00;98755.22;;;-0.08;98.32
42671;BME280;28283;55.426;37.756;2022-12-11T15:42:05;98751.75;;;-0.08;98.42
42671;BME280;28283;55.426;37.756;2022-12-11T15:47:13;98751.75;;;-0.08;98.01
42671;BME280;28283;55.426;37.756;2022-12-11T15:52:14;98721.41;;;-0.04;98.38
42671;BME280;28283;55.426;37.756;2022-12-11T15:57:19;98720.28;;;-0.02;98.56
42671;BME280;28283;55.426;37.756;2022-12-11T16:02:21;98707.59;;;-0.16;98.38
42671;BME280;28283;55.426;37.756;2022-12-11T16:07:24;98698.81;;;-0.16;98.67
42671;BME280;28283;55.426;37.756;2022-12-11T16:12:25;98678.91;;;-0.11;98.60
42671;BME280;28283;55.426;37.756;2022-12-11T16:17:26;98681.94;;;-0.06;98.97
42671;BME280;28283;55.426;37.756;2022-12-11T16:22:26;98703.69;;;0.06;98.25
42671;BME280;28283;55.426;37.756;2022-12-11T16:27:27;98701.03;;;0.06;98.36
42671;BME280;28283;55.426;37.756;2022-12-11T16:32:28;98685.34;;;0.05;98.48
42671;BME280;28283;55.426;37.756;2022-12-11T16:37:28;98661.84;;;0.02;98.55
42671;BME280;28283;55.426;37.756;2022-12-11T16:42:32;98663.53;;;0.03;98.74
42671;BME280;28283;55.426;37.756;2022-12-11T16:47:33;98647.75;;;0.11;98.65
42671;BME280;28283;55.426;37.756;2022-12-11T16:52:33;98625.38;;;0.05;98.92
42671;BME280;28283;55.426;37.756;2022-12-11T16:57:34;98610.44;;;0.14;98.40
42671;BME280;28283;55.426;37.756;2022-12-11T17:02:36;98625.31;;;0.15;98.25
42671;BME280;28283;55.426;37.756;2022-12-11T17:07:37;98597.84;;;0.08;98.91
42671;BME280;28283;55.426;37.756;2022-12-11T17:12:38;98603.81;;;0.10;98.78
42671;BME280;28283;55.426;37.756;2022-12-11T17:17:38;98582.50;;;0.11;98.82
42671;BME280;28283;55.426;37.756;2022-12-11T17:22:40;98558.59;;;0.13;98.92
42671;BME280;28283;55.426;37.756;2022-12-11T17:27:41;98546.75;;;-0.01;98.98
42671;BME280;28283;55.426;37.756;2022-12-11T17:32:46;98559.09;;;0.16;98.60
42671;BME280;28283;55.426;37.756;2022-12-11T17:37:49;98545.28;;;0.05;98.81
42671;BME280;28283;55.426;37.756;2022-12-11T17:42:50;98562.41;;;0.18;98.56
42671;BME280;28283;55.426;37.756;2022-12-11T17:47:51;98536.78;;;0.11;99.21
42671;BME280;28283;55.426;37.756;2022-12-11T17:52:52;98520.91;;;0.11;99.18
42671;BME280;28283;55.426;37.756;2022-12-11T17:57:52;98516.47;;;0.19;99.23
42671;BME280;28283;55.426;37.756;2022-12-11T18:02:53;98507.69;;;0.11;99.00
42671;BME280;28283;55.426;37.756;2022-12-11T18:07:53;98508.88;;;0.16;99.18
42671;BME280;28283;55.426;37.756;2022-12-11T18:12:54;98501.16;;;0.23;97.84
42671;BME280;28283;55.426;37.756;2022-12-11T18:17:58;98499.03;;;0.27;98.31
42671;BME280;28283;55.426;37.756;2022-12-11T18:22:59;98531.97;;;0.32;98.46
42671;BME280;28283;55.426;37.756;2022-12-11T18:28:00;98534.41;;;0.34;98.81
42671;BME280;28283;55.426;37.756;2022-12-11T18:33:00;98538.88;;;0.33;98.67
42671;BME280;28283;55.426;37.756;2022-12-11T18:38:01;98524.47;;;0.28;99.01
42671;BME280;28283;55.426;37.756;2022-12-11T18:43:03;98526.50;;;0.34;98.80
42671;BME280;28283;55.426;37.756;2022-12-11T18:48:03;98537.63;;;0.46;98.91
42671;BME280;28283;55.426;37.756;2022-12-11T18:53:05;98517.16;;;0.48;98.46
42671;BME280;28283;55.426;37.756;2022-12-11T18:58:05;98501.00;;;0.51;98.96
42671;BME280;28283;55.426;37.756;2022-12-11T19:03:07;98489.75;;;0.49;98.96
42671;BME280;28283;55.426;37.756;2022-12-11T19:08:09;98480.63;;;0.43;99.05
42671;BME280;28283;55.426;37.756;2022-12-11T19:13:10;98494.38;;;0.55;98.54
42671;BME280;28283;55.426;37.756;2022-12-11T19:18:12;98431.59;;;0.23;98.83
42671;BME280;28283;55.426;37.756;2022-12-11T19:23:13;98312.13;;;-0.58;98.77
42671;BME280;28283;55.426;37.756;2022-12-11T19:28:15;98503.84;;;0.57;99.11
42671;BME280;28283;55.426;37.756;2022-12-11T19:33:19;98434.59;;;0.28;98.97
42671;BME280;28283;55.426;37.756;2022-12-11T19:38:19;98470.13;;;0.60;98.89
42671;BME280;28283;55.426;37.756;2022-12-11T19:43:20;98472.63;;;0.69;98.61
42671;BME280;28283;55.426;37.756;2022-12-11T19:48:21;98453.41;;;0.59;98.32
42671;BME280;28283;55.426;37.756;2022-12-11T19:53:22;98461.06;;;0.70;98.77
42671;BME280;28283;55.426;37.756;2022-12-11T19:58:22;98452.78;;;0.65;98.48
42671;BME280;28283;55.426;37.756;2022-12-11T20:03:23;98451.97;;;0.73;99.18
42671;BME280;28283;55.426;37.756;2022-12-11T20:08:23;98451.16;;;0.81;98.81
42671;BME280;28283;55.426;37.756;2022-12-11T20:13:24;98454.81;;;0.80;99.09
42671;BME280;28283;55.426;37.756;2022-12-11T20:18:25;98442.59;;;0.87;99.13
42671;BME280;28283;55.426;37.756;2022-12-11T20:23:26;98444.75;;;0.91;99.25
42671;BME280;28283;55.426;37.756;2022-12-11T20:28:27;98434.66;;;0.95;98.68
42671;BME280;28283;55.426;37.756;2022-12-11T20:33:27;98398.75;;;0.76;99.18
42671;BME280;28283;55.426;37.756;2022-12-11T20:38:28;98418.63;;;0.97;99.07
42671;BME280;28283;55.426;37.756;2022-12-11T20:43:29;98394.97;;;0.95;99.20
42671;BME280;28283;55.426;37.756;2022-12-11T20:48:29;98372.66;;;0.89;99.57
42671;BME280;28283;55.426;37.756;2022-12-11T20:53:30;98374.00;;;1.02;99.45
42671;BME280;28283;55.426;37.756;2022-12-11T20:58:31;98361.44;;;0.95;99.19
42671;BME280;28283;55.426;37.756;2022-12-11T21:03:32;98356.97;;;1.04;99.50
42671;BME280;28283;55.426;37.756;2022-12-11T21:08:33;98356.31;;;1.10;99.80
42671;BME280;28283;55.426;37.756;2022-12-11T21:13:34;98336.13;;;1.01;99.32
42671;BME280;28283;55.426;37.756;2022-12-11T21:18:37;98350.84;;;1.20;98.77
42671;BME280;28283;55.426;37.756;2022-12-11T21:23:37;98331.47;;;1.20;98.87
42671;BME280;28283;55.426;37.756;2022-12-11T21:28:38;98350.50;;;1.23;99.67
42671;BME280;28283;55.426;37.756;2022-12-11T21:33:39;98325.53;;;1.18;99.53
42671;BME280;28283;55.426;37.756;2022-12-11T21:38:41;98285.03;;;1.01;99.47
42671;BME280;28283;55.426;37.756;2022-12-11T21:43:44;98306.31;;;1.24;99.30
42671;BME280;28283;55.426;37.756;2022-12-11T21:48:46;98305.50;;;1.23;99.66
42671;BME280;28283;55.426;37.756;2022-12-11T21:53:47;98263.69;;;1.19;99.35
42671;BME280;28283;55.426;37.756;2022-12-11T21:58:49;98280.50;;;1.34;99.30
42671;BME280;28283;55.426;37.756;2022-12-11T22:03:51;98280.19;;;1.37;99.32
42671;BME280;28283;55.426;37.756;2022-12-11T22:08:52;98272.25;;;1.37;99.13
42671;BME280;28283;55.426;37.756;2022-12-11T22:13:53;98252.38;;;1.41;99.27
42671;BME280;28283;55.426;37.756;2022-12-11T22:18:54;98237.78;;;1.45;98.57
42671;BME280;28283;55.426;37.756;2022-12-11T22:23:55;98214.97;;;1.44;99.21
42671;BME280;28283;55.426;37.756;2022-12-11T22:28:56;98235.81;;;1.47;98.57
42671;BME280;28283;55.426;37.756;2022-12-11T22:33:57;98188.84;;;1.33;98.44
42671;BME280;28283;55.426;37.756;2022-12-11T22:38:59;98196.53;;;1.59;98.60
42671;BME280;28283;55.426;37.756;2022-12-11T22:44:00;98147.56;;;1.55;98.25
42671;BME280;28283;55.426;37.756;2022-12-11T22:49:00;98184.06;;;1.68;97.78
42671;BME280;28283;55.426;37.756;2022-12-11T22:54:01;98163.34;;;1.71;98.25
42671;BME280;28283;55.426;37.756;2022-12-11T22:59:02;98158.03;;;1.80;97.44
42671;BME280;28283;55.426;37.756;2022-12-11T23:04:03;98143.25;;;1.85;97.13
42671;BME280;28283;55.426;37.756;2022-12-11T23:09:04;98110.25;;;1.88;97.14
42671;BME280;28283;55.426;37.756;2022-12-11T23:14:07;98125.31;;;1.96;97.02
42671;BME280;28283;55.426;37.756;2022-12-11T23:19:08;98130.41;;;1.97;96.48
42671;BME280;28283;55.426;37.756;2022-12-11T23:24:09;98113.22;;;1.93;96.58
42671;BME280;28283;55.426;37.756;2022-12-11T23:29:10;98089.38;;;1.93;96.50
42671;BME280;28283;55.426;37.756;2022-12-11T23:34:11;98089.53;;;1.91;96.64
42671;BME280;28283;55.426;37.756;2022-12-11T23:39:12;98092.03;;;1.93;96.55
42671;BME280;28283;55.426;37.756;2022-12-11T23:44:12;98094.84;;;1.91;96.25
42671;BME280;28283;55.426;37.756;2022-12-11T23:49:13;98077.81;;;1.86;96.83
42671;BME280;28283;55.426;37.756;2022-12-11T23:54:13;98071.16;;;1.90;96.24
42671;BME280;28283;55.426;37.756;2022-12-11T23:59:14;98056.28;;;1.89;96.50
